Peterborough Airport
CYPQ : now visible

Airfield :











YOU CAN JOIN US ON...

 
LOGIN :

Register | Disclaimer

   EN    FR    IT 

 









Legend :    VFR   Marginal VFR   IFR   Intensive IFR   Very Intensive IFR
Visi :
Ceiling :
>= 8 km
>= 3000ft
5 to 8 km
1000 to 3000 ft
1500m to 5 km
500 to 1000 ft
800 to 1500m
200 to 500 ft
< 800m
< 200 ft
Symbols :   Thunderstorms  Fog  Heavy snow  Heavy precipitations  Wind > 20 kt







- Airport Elevation : 628 ft
- IATA code : YPQ


CYPQ - Peterborough

CURRENT METAR :
  • 181000Z AUTO 01003KT 9SM CLR 16/16 A2996 RMK SLP146 DENSITY ALT 800FT

EXPIRED METARs :
  • 180900Z AUTO VRB02KT 9SM CLR 17/17 A2995 RMK SLP144 DENSITY ALT 900FT
  • 180800Z AUTO 05004KT 9SM CLR 18/17 A2995 RMK SLP143 DENSITY ALT 1000FT

TAF TAF CYPQ
Valid from the 18 at 10:00 until the 18 at 22:00 UTC


180938Z 1810/1822 06005KT P6SM FEW280
FM181700 17008KT P6SM BKN270 RMK FCST BASED ON AUTO OBS. NXT FCST BY 181400Z
CZYZ FIR / North America



MET'MAP, your aeronautical weather chart ! - Copyright ORBIFLY December 2007 - Disclaimer

ORBIFLY MET'MAP TEAM :

Programming & Development : Alexandra Zaïnal
Concept & Development : Baudouin d'Aumeries
Co-Development & Prog : Marc-Olivier Méhu
Technical & hardware support : Manuel Goepfert

Contact : metmap@orbifly.com




SOURCES & CREDITS :

   NOAA       Earth
Advisory